sensor_id;sensor_type;location;lat;lon;timestamp;pressure;altitude;pressure_sealevel;temperature
75811;BMP280;64449;50.016;19.954;2023-03-12T00:00:38;98021.88;;;2.70
75811;BMP280;64449;50.016;19.954;2023-03-12T00:03:04;98026.34;;;2.71
75811;BMP280;64449;50.016;19.954;2023-03-12T00:05:30;98025.79;;;2.71
75811;BMP280;64449;50.016;19.954;2023-03-12T00:07:55;98027.35;;;2.71
75811;BMP280;64449;50.016;19.954;2023-03-12T00:10:24;98031.24;;;2.70
75811;BMP280;64449;50.016;19.954;2023-03-12T00:12:50;98033.30;;;2.70
75811;BMP280;64449;50.016;19.954;2023-03-12T00:15:15;98035.73;;;2.69
75811;BMP280;64449;50.016;19.954;2023-03-12T00:17:41;98040.96;;;2.69
75811;BMP280;64449;50.016;19.954;2023-03-12T00:20:06;98042.86;;;2.67
75811;BMP280;64449;50.016;19.954;2023-03-12T00:22:33;98042.00;;;2.67
75811;BMP280;64449;50.016;19.954;2023-03-12T00:24:58;98045.57;;;2.65
75811;BMP280;64449;50.016;19.954;2023-03-12T00:27:24;98045.52;;;2.63
75811;BMP280;64449;50.016;19.954;2023-03-12T00:29:50;98049.52;;;2.62
75811;BMP280;64449;50.016;19.954;2023-03-12T00:32:16;98048.48;;;2.62
75811;BMP280;64449;50.016;19.954;2023-03-12T00:34:41;98050.61;;;2.61
75811;BMP280;64449;50.016;19.954;2023-03-12T00:37:07;98054.97;;;2.60
75811;BMP280;64449;50.016;19.954;2023-03-12T00:39:33;98060.55;;;2.58
75811;BMP280;64449;50.016;19.954;2023-03-12T00:41:59;98062.13;;;2.58
75811;BMP280;64449;50.016;19.954;2023-03-12T00:44:24;98064.95;;;2.58
75811;BMP280;64449;50.016;19.954;2023-03-12T00:46:50;98063.69;;;2.57
75811;BMP280;64449;50.016;19.954;2023-03-12T00:49:15;98062.95;;;2.55
75811;BMP280;64449;50.016;19.954;2023-03-12T00:51:40;98063.45;;;2.53
75811;BMP280;64449;50.016;19.954;2023-03-12T00:54:06;98064.62;;;2.52
75811;BMP280;64449;50.016;19.954;2023-03-12T00:56:31;98065.33;;;2.51
75811;BMP280;64449;50.016;19.954;2023-03-12T00:58:56;98067.36;;;2.51
75811;BMP280;64449;50.016;19.954;2023-03-12T01:01:22;98067.61;;;2.49
75811;BMP280;64449;50.016;19.954;2023-03-12T01:03:49;98068.89;;;2.46
75811;BMP280;64449;50.016;19.954;2023-03-12T01:06:16;98066.98;;;2.43
75811;BMP280;64449;50.016;19.954;2023-03-12T01:08:42;98071.70;;;2.42
75811;BMP280;64449;50.016;19.954;2023-03-12T01:11:12;98071.59;;;2.40
75811;BMP280;64449;50.016;19.954;2023-03-12T01:13:37;98074.53;;;2.38
75811;BMP280;64449;50.016;19.954;2023-03-12T01:16:03;98076.27;;;2.36
75811;BMP280;64449;50.016;19.954;2023-03-12T01:18:29;98082.16;;;2.34
75811;BMP280;64449;50.016;19.954;2023-03-12T01:20:54;98083.52;;;2.32
75811;BMP280;64449;50.016;19.954;2023-03-12T01:23:20;98086.04;;;2.28
75811;BMP280;64449;50.016;19.954;2023-03-12T01:25:45;98083.05;;;2.26
75811;BMP280;64449;50.016;19.954;2023-03-12T01:28:11;98086.19;;;2.24
75811;BMP280;64449;50.016;19.954;2023-03-12T01:30:37;98086.35;;;2.22
75811;BMP280;64449;50.016;19.954;2023-03-12T01:33:02;98084.98;;;2.20
75811;BMP280;64449;50.016;19.954;2023-03-12T01:35:28;98085.21;;;2.19
75811;BMP280;64449;50.016;19.954;2023-03-12T01:37:53;98080.20;;;2.17
75811;BMP280;64449;50.016;19.954;2023-03-12T01:40:21;98077.23;;;2.13
75811;BMP280;64449;50.016;19.954;2023-03-12T01:42:57;98079.13;;;2.12
75811;BMP280;64449;50.016;19.954;2023-03-12T01:48:27;98086.01;;;2.07
75811;BMP280;64449;50.016;19.954;2023-03-12T01:50:54;98083.71;;;2.05
75811;BMP280;64449;50.016;19.954;2023-03-12T01:53:20;98083.73;;;2.05
75811;BMP280;64449;50.016;19.954;2023-03-12T01:55:46;98083.36;;;2.04
75811;BMP280;64449;50.016;19.954;2023-03-12T01:58:12;98087.07;;;2.01
75811;BMP280;64449;50.016;19.954;2023-03-12T02:00:38;98085.29;;;1.99
75811;BMP280;64449;50.016;19.954;2023-03-12T02:03:06;98086.61;;;1.97
75811;BMP280;64449;50.016;19.954;2023-03-12T02:05:41;98089.77;;;1.95
75811;BMP280;64449;50.016;19.954;2023-03-12T02:08:09;98089.59;;;1.93
75811;BMP280;64449;50.016;19.954;2023-03-12T02:10:35;98091.09;;;1.91
75811;BMP280;64449;50.016;19.954;2023-03-12T02:13:01;98094.40;;;1.89
75811;BMP280;64449;50.016;19.954;2023-03-12T02:15:26;98097.65;;;1.85
75811;BMP280;64449;50.016;19.954;2023-03-12T02:17:52;98102.98;;;1.82
75811;BMP280;64449;50.016;19.954;2023-03-12T02:20:27;98107.70;;;1.79
75811;BMP280;64449;50.016;19.954;2023-03-12T02:23:08;98106.44;;;1.76
75811;BMP280;64449;50.016;19.954;2023-03-12T02:25:43;98110.67;;;1.72
75811;BMP280;64449;50.016;19.954;2023-03-12T02:28:15;98114.48;;;1.67
75811;BMP280;64449;50.016;19.954;2023-03-12T02:30:46;98115.83;;;1.64
75811;BMP280;64449;50.016;19.954;2023-03-12T02:33:13;98122.13;;;1.61
75811;BMP280;64449;50.016;19.954;2023-03-12T02:35:39;98124.48;;;1.59
75811;BMP280;64449;50.016;19.954;2023-03-12T02:38:35;98124.60;;;1.57
75811;BMP280;64449;50.016;19.954;2023-03-12T02:41:09;98129.04;;;1.55
75811;BMP280;64449;50.016;19.954;2023-03-12T02:43:35;98129.71;;;1.52
75811;BMP280;64449;50.016;19.954;2023-03-12T02:46:01;98133.12;;;1.51
75811;BMP280;64449;50.016;19.954;2023-03-12T02:48:26;98136.27;;;1.48
75811;BMP280;64449;50.016;19.954;2023-03-12T02:50:51;98133.64;;;1.45
75811;BMP280;64449;50.016;19.954;2023-03-12T02:53:17;98138.41;;;1.41
75811;BMP280;64449;50.016;19.954;2023-03-12T02:55:42;98138.23;;;1.39
75811;BMP280;64449;50.016;19.954;2023-03-12T02:58:08;98142.61;;;1.36
75811;BMP280;64449;50.016;19.954;2023-03-12T03:00:33;98147.19;;;1.34
75811;BMP280;64449;50.016;19.954;2023-03-12T03:03:00;98149.42;;;1.32
75811;BMP280;64449;50.016;19.954;2023-03-12T03:05:26;98148.52;;;1.31
75811;BMP280;64449;50.016;19.954;2023-03-12T03:07:51;98154.61;;;1.30
75811;BMP280;64449;50.016;19.954;2023-03-12T03:10:16;98157.88;;;1.30
75811;BMP280;64449;50.016;19.954;2023-03-12T03:12:42;98162.17;;;1.28
75811;BMP280;64449;50.016;19.954;2023-03-12T03:15:09;98161.80;;;1.27
75811;BMP280;64449;50.016;19.954;2023-03-12T03:17:35;98167.79;;;1.27
75811;BMP280;64449;50.016;19.954;2023-03-12T03:20:01;98166.46;;;1.27
75811;BMP280;64449;50.016;19.954;2023-03-12T03:22:28;98168.25;;;1.27
75811;BMP280;64449;50.016;19.954;2023-03-12T03:24:54;98176.30;;;1.26
75811;BMP280;64449;50.016;19.954;2023-03-12T03:27:19;98177.94;;;1.26
75811;BMP280;64449;50.016;19.954;2023-03-12T03:29:45;98184.79;;;1.26
75811;BMP280;64449;50.016;19.954;2023-03-12T03:32:11;98184.02;;;1.25
75811;BMP280;64449;50.016;19.954;2023-03-12T03:34:36;98188.59;;;1.25
75811;BMP280;64449;50.016;19.954;2023-03-12T03:37:03;98196.81;;;1.25
75811;BMP280;64449;50.016;19.954;2023-03-12T03:39:29;98200.88;;;1.26
75811;BMP280;64449;50.016;19.954;2023-03-12T03:41:55;98203.15;;;1.26
75811;BMP280;64449;50.016;19.954;2023-03-12T03:44:20;98205.42;;;1.28
75811;BMP280;64449;50.016;19.954;2023-03-12T03:46:47;98204.48;;;1.29
75811;BMP280;64449;50.016;19.954;2023-03-12T03:49:13;98210.41;;;1.31
75811;BMP280;64449;50.016;19.954;2023-03-12T03:51:38;98210.43;;;1.32
75811;BMP280;64449;50.016;19.954;2023-03-12T03:54:07;98207.91;;;1.34
75811;BMP280;64449;50.016;19.954;2023-03-12T03:56:32;98210.10;;;1.36
75811;BMP280;64449;50.016;19.954;2023-03-12T03:58:58;98211.73;;;1.37
75811;BMP280;64449;50.016;19.954;2023-03-12T04:01:23;98216.09;;;1.38
75811;BMP280;64449;50.016;19.954;2023-03-12T04:03:49;98217.23;;;1.39
75811;BMP280;64449;50.016;19.954;2023-03-12T04:06:14;98219.80;;;1.41
75811;BMP280;64449;50.016;19.954;2023-03-12T04:08:40;98225.94;;;1.42
75811;BMP280;64449;50.016;19.954;2023-03-12T04:11:16;98223.18;;;1.44
75811;BMP280;64449;50.016;19.954;2023-03-12T04:13:42;98225.16;;;1.46
75811;BMP280;64449;50.016;19.954;2023-03-12T04:16:08;98227.81;;;1.47
75811;BMP280;64449;50.016;19.954;2023-03-12T04:18:34;98229.41;;;1.49
75811;BMP280;64449;50.016;19.954;2023-03-12T04:21:01;98230.22;;;1.50
75811;BMP280;64449;50.016;19.954;2023-03-12T04:23:26;98230.46;;;1.50
75811;BMP280;64449;50.016;19.954;2023-03-12T04:25:51;98230.87;;;1.47
75811;BMP280;64449;50.016;19.954;2023-03-12T04:28:17;98230.83;;;1.47
75811;BMP280;64449;50.016;19.954;2023-03-12T04:30:42;98231.42;;;1.47
75811;BMP280;64449;50.016;19.954;2023-03-12T04:33:08;98232.29;;;1.48
75811;BMP280;64449;50.016;19.954;2023-03-12T04:35:33;98236.02;;;1.49
75811;BMP280;64449;50.016;19.954;2023-03-12T04:38:00;98235.67;;;1.50
75811;BMP280;64449;50.016;19.954;2023-03-12T04:40:26;98234.86;;;1.51
75811;BMP280;64449;50.016;19.954;2023-03-12T04:42:52;98237.66;;;1.52
75811;BMP280;64449;50.016;19.954;2023-03-12T04:45:17;98235.63;;;1.51
75811;BMP280;64449;50.016;19.954;2023-03-12T04:47:43;98236.64;;;1.50
75811;BMP280;64449;50.016;19.954;2023-03-12T04:50:10;98238.16;;;1.49
75811;BMP280;64449;50.016;19.954;2023-03-12T04:52:35;98236.37;;;1.46
75811;BMP280;64449;50.016;19.954;2023-03-12T04:55:01;98240.04;;;1.42
75811;BMP280;64449;50.016;19.954;2023-03-12T04:57:26;98238.42;;;1.38
75811;BMP280;64449;50.016;19.954;2023-03-12T04:59:52;98242.84;;;1.33
75811;BMP280;64449;50.016;19.954;2023-03-12T05:02:17;98241.91;;;1.30
75811;BMP280;64449;50.016;19.954;2023-03-12T05:04:43;98245.61;;;1.27
75811;BMP280;64449;50.016;19.954;2023-03-12T05:07:08;98243.90;;;1.23
75811;BMP280;64449;50.016;19.954;2023-03-12T05:09:33;98244.64;;;1.20
75811;BMP280;64449;50.016;19.954;2023-03-12T05:11:59;98244.19;;;1.17
75811;BMP280;64449;50.016;19.954;2023-03-12T05:14:24;98251.96;;;1.13
75811;BMP280;64449;50.016;19.954;2023-03-12T05:16:50;98253.11;;;1.09
75811;BMP280;64449;50.016;19.954;2023-03-12T05:19:15;98249.60;;;1.05
75811;BMP280;64449;50.016;19.954;2023-03-12T05:21:41;98250.56;;;1.02
75811;BMP280;64449;50.016;19.954;2023-03-12T05:24:07;98255.67;;;1.00
75811;BMP280;64449;50.016;19.954;2023-03-12T05:26:33;98255.41;;;0.98
75811;BMP280;64449;50.016;19.954;2023-03-12T05:28:59;98254.48;;;0.95
75811;BMP280;64449;50.016;19.954;2023-03-12T05:31:27;98260.41;;;0.94
75811;BMP280;64449;50.016;19.954;2023-03-12T05:33:58;98265.04;;;0.92
75811;BMP280;64449;50.016;19.954;2023-03-12T05:36:24;98260.10;;;0.91
75811;BMP280;64449;50.016;19.954;2023-03-12T05:38:50;98260.85;;;0.90
75811;BMP280;64449;50.016;19.954;2023-03-12T05:41:27;98262.37;;;0.90
75811;BMP280;64449;50.016;19.954;2023-03-12T05:43:54;98270.22;;;0.88
75811;BMP280;64449;50.016;19.954;2023-03-12T05:46:21;98276.53;;;0.87
75811;BMP280;64449;50.016;19.954;2023-03-12T05:48:47;98272.31;;;0.86
75811;BMP280;64449;50.016;19.954;2023-03-12T05:51:13;98274.84;;;0.86
75811;BMP280;64449;50.016;19.954;2023-03-12T05:53:38;98282.92;;;0.85
75811;BMP280;64449;50.016;19.954;2023-03-12T05:56:06;98282.13;;;0.86
75811;BMP280;64449;50.016;19.954;2023-03-12T05:58:33;98287.31;;;0.87
75811;BMP280;64449;50.016;19.954;2023-03-12T06:01:00;98291.84;;;0.89
75811;BMP280;64449;50.016;19.954;2023-03-12T06:03:25;98298.21;;;0.93
75811;BMP280;64449;50.016;19.954;2023-03-12T06:05:51;98305.20;;;0.96
75811;BMP280;64449;50.016;19.954;2023-03-12T06:08:20;98303.34;;;1.01
75811;BMP280;64449;50.016;19.954;2023-03-12T06:10:46;98309.05;;;1.06
75811;BMP280;64449;50.016;19.954;2023-03-12T06:13:11;98309.96;;;1.12
75811;BMP280;64449;50.016;19.954;2023-03-12T06:15:37;98311.15;;;1.18
75811;BMP280;64449;50.016;19.954;2023-03-12T06:18:02;98316.19;;;1.24
75811;BMP280;64449;50.016;19.954;2023-03-12T06:20:28;98319.66;;;1.29
75811;BMP280;64449;50.016;19.954;2023-03-12T06:22:53;98324.39;;;1.35
75811;BMP280;64449;50.016;19.954;2023-03-12T06:25:19;98322.66;;;1.40
75811;BMP280;64449;50.016;19.954;2023-03-12T06:27:44;98322.73;;;1.45
75811;BMP280;64449;50.016;19.954;2023-03-12T06:30:10;98325.39;;;1.49
75811;BMP280;64449;50.016;19.954;2023-03-12T06:32:35;98329.98;;;1.53
75811;BMP280;64449;50.016;19.954;2023-03-12T06:35:01;98328.77;;;1.58
75811;BMP280;64449;50.016;19.954;2023-03-12T06:37:29;98328.81;;;1.62
75811;BMP280;64449;50.016;19.954;2023-03-12T06:39:54;98330.34;;;1.69
75811;BMP280;64449;50.016;19.954;2023-03-12T06:42:20;98331.15;;;1.75
75811;BMP280;64449;50.016;19.954;2023-03-12T06:44:47;98334.43;;;1.82
75811;BMP280;64449;50.016;19.954;2023-03-12T06:47:12;98333.84;;;1.90
75811;BMP280;64449;50.016;19.954;2023-03-12T06:49:37;98333.73;;;1.95
75811;BMP280;64449;50.016;19.954;2023-03-12T06:52:03;98335.04;;;2.00
75811;BMP280;64449;50.016;19.954;2023-03-12T06:54:29;98338.59;;;2.03
75811;BMP280;64449;50.016;19.954;2023-03-12T06:56:54;98340.97;;;2.05
75811;BMP280;64449;50.016;19.954;2023-03-12T06:59:20;98348.60;;;2.09
75811;BMP280;64449;50.016;19.954;2023-03-12T07:01:47;98346.68;;;2.10
75811;BMP280;64449;50.016;19.954;2023-03-12T07:04:12;98348.80;;;2.13
75811;BMP280;64449;50.016;19.954;2023-03-12T07:06:38;98343.35;;;2.16
75811;BMP280;64449;50.016;19.954;2023-03-12T07:09:04;98336.81;;;2.18
75811;BMP280;64449;50.016;19.954;2023-03-12T07:11:29;98341.20;;;2.22
75811;BMP280;64449;50.016;19.954;2023-03-12T07:13:55;98355.80;;;2.35
75811;BMP280;64449;50.016;19.954;2023-03-12T07:16:21;98354.89;;;2.41
75811;BMP280;64449;50.016;19.954;2023-03-12T07:18:47;98352.23;;;2.46
75811;BMP280;64449;50.016;19.954;2023-03-12T07:21:13;98352.10;;;2.50
75811;BMP280;64449;50.016;19.954;2023-03-12T07:23:40;98350.33;;;2.55
75811;BMP280;64449;50.016;19.954;2023-03-12T07:26:06;98348.02;;;2.63
75811;BMP280;64449;50.016;19.954;2023-03-12T07:28:32;98350.08;;;2.76
75811;BMP280;64449;50.016;19.954;2023-03-12T07:31:01;98357.08;;;3.65
75811;BMP280;64449;50.016;19.954;2023-03-12T07:33:27;98349.20;;;4.25
75811;BMP280;64449;50.016;19.954;2023-03-12T07:35:52;98352.48;;;4.84
75811;BMP280;64449;50.016;19.954;2023-03-12T07:38:18;98340.91;;;5.20
75811;BMP280;64449;50.016;19.954;2023-03-12T07:40:43;98341.59;;;5.28
75811;BMP280;64449;50.016;19.954;2023-03-12T07:43:09;98346.23;;;5.57
75811;BMP280;64449;50.016;19.954;2023-03-12T07:45:37;98342.73;;;6.22
75811;BMP280;64449;50.016;19.954;2023-03-12T07:48:03;98348.38;;;6.77
75811;BMP280;64449;50.016;19.954;2023-03-12T07:50:30;98346.92;;;7.04
75811;BMP280;64449;50.016;19.954;2023-03-12T07:52:55;98341.54;;;7.35
75811;BMP280;64449;50.016;19.954;2023-03-12T07:55:20;98346.02;;;8.14
75811;BMP280;64449;50.016;19.954;2023-03-12T07:57:46;98346.13;;;8.88
75811;BMP280;64449;50.016;19.954;2023-03-12T08:00:12;98332.21;;;8.95
75811;BMP280;64449;50.016;19.954;2023-03-12T08:02:38;98338.85;;;8.76
75811;BMP280;64449;50.016;19.954;2023-03-12T08:05:05;98338.39;;;8.26
75811;BMP280;64449;50.016;19.954;2023-03-12T08:07:30;98351.16;;;7.76
75811;BMP280;64449;50.016;19.954;2023-03-12T08:09:58;98344.86;;;7.28
75811;BMP280;64449;50.016;19.954;2023-03-12T08:12:23;98341.01;;;6.86
75811;BMP280;64449;50.016;19.954;2023-03-12T08:14:49;98345.84;;;6.56
75811;BMP280;64449;50.016;19.954;2023-03-12T08:17:14;98338.88;;;6.35
75811;BMP280;64449;50.016;19.954;2023-03-12T08:19:39;98341.38;;;6.23
75811;BMP280;64449;50.016;19.954;2023-03-12T08:22:07;98343.52;;;6.28
75811;BMP280;64449;50.016;19.954;2023-03-12T08:24:33;98351.25;;;6.71
75811;BMP280;64449;50.016;19.954;2023-03-12T08:27:01;98352.48;;;7.26
75811;BMP280;64449;50.016;19.954;2023-03-12T08:29:26;98351.56;;;7.90
75811;BMP280;64449;50.016;19.954;2023-03-12T08:31:52;98345.98;;;8.54
75811;BMP280;64449;50.016;19.954;2023-03-12T08:34:17;98345.27;;;9.17
75811;BMP280;64449;50.016;19.954;2023-03-12T08:36:43;98346.17;;;9.76
75811;BMP280;64449;50.016;19.954;2023-03-12T08:39:08;98346.80;;;10.29
75811;BMP280;64449;50.016;19.954;2023-03-12T08:41:33;98346.85;;;10.70
75811;BMP280;64449;50.016;19.954;2023-03-12T08:43:59;98347.68;;;10.89
75811;BMP280;64449;50.016;19.954;2023-03-12T08:46:24;98357.13;;;11.21
75811;BMP280;64449;50.016;19.954;2023-03-12T08:48:50;98362.21;;;11.49
75811;BMP280;64449;50.016;19.954;2023-03-12T08:51:15;98363.36;;;11.75
75811;BMP280;64449;50.016;19.954;2023-03-12T08:53:41;98366.89;;;12.09
75811;BMP280;64449;50.016;19.954;2023-03-12T08:56:07;98365.05;;;12.38
75811;BMP280;64449;50.016;19.954;2023-03-12T08:58:32;98360.77;;;12.77
75811;BMP280;64449;50.016;19.954;2023-03-12T09:00:58;98360.44;;;13.19
75811;BMP280;64449;50.016;19.954;2023-03-12T09:03:24;98359.19;;;13.43
75811;BMP280;64449;50.016;19.954;2023-03-12T09:05:50;98361.20;;;13.61
75811;BMP280;64449;50.016;19.954;2023-03-12T09:08:16;98358.73;;;13.79
75811;BMP280;64449;50.016;19.954;2023-03-12T09:10:48;98357.88;;;13.85
75811;BMP280;64449;50.016;19.954;2023-03-12T09:13:14;98357.95;;;14.01
75811;BMP280;64449;50.016;19.954;2023-03-12T09:15:39;98358.73;;;14.27
75811;BMP280;64449;50.016;19.954;2023-03-12T09:18:05;98355.70;;;14.58
75811;BMP280;64449;50.016;19.954;2023-03-12T09:20:30;98358.59;;;14.86
75811;BMP280;64449;50.016;19.954;2023-03-12T09:22:56;98350.61;;;15.14
75811;BMP280;64449;50.016;19.954;2023-03-12T09:25:22;98353.42;;;15.38
75811;BMP280;64449;50.016;19.954;2023-03-12T09:27:48;98348.94;;;15.50
75811;BMP280;64449;50.016;19.954;2023-03-12T09:30:17;98350.61;;;15.65
75811;BMP280;64449;50.016;19.954;2023-03-12T09:32:43;98354.79;;;15.76
75811;BMP280;64449;50.016;19.954;2023-03-12T09:35:10;98347.45;;;15.86
75811;BMP280;64449;50.016;19.954;2023-03-12T09:37:36;98347.25;;;15.82
75811;BMP280;64449;50.016;19.954;2023-03-12T09:40:02;98348.55;;;15.74
75811;BMP280;64449;50.016;19.954;2023-03-12T09:45:04;98356.00;;;15.90
75811;BMP280;64449;50.016;19.954;2023-03-12T09:47:39;98348.23;;;16.00
75811;BMP280;64449;50.016;19.954;2023-03-12T09:50:38;98351.91;;;16.12
75811;BMP280;64449;50.016;19.954;2023-03-12T09:55:41;98352.97;;;16.35
75811;BMP280;64449;50.016;19.954;2023-03-12T09:58:30;98353.68;;;16.41
75811;BMP280;64449;50.016;19.954;2023-03-12T10:06:54;98353.73;;;17.25
75811;BMP280;64449;50.016;19.954;2023-03-12T10:12:51;98362.73;;;17.59
75811;BMP280;64449;50.016;19.954;2023-03-12T10:23:28;98354.48;;;18.02
75811;BMP280;64449;50.016;19.954;2023-03-12T10:26:45;98352.33;;;18.01
75811;BMP280;64449;50.016;19.954;2023-03-12T10:28:48;98348.64;;;18.04
75811;BMP280;64449;50.016;19.954;2023-03-12T10:31:18;98343.77;;;18.14
75811;BMP280;64449;50.016;19.954;2023-03-12T10:33:51;98342.90;;;18.33
75811;BMP280;64449;50.016;19.954;2023-03-12T10:36:39;98344.33;;;18.47
75811;BMP280;64449;50.016;19.954;2023-03-12T10:39:16;98345.14;;;18.69
75811;BMP280;64449;50.016;19.954;2023-03-12T10:41:44;98344.45;;;18.85
75811;BMP280;64449;50.016;19.954;2023-03-12T10:44:21;98341.17;;;18.92
75811;BMP280;64449;50.016;19.954;2023-03-12T10:49:54;98349.31;;;19.17
75811;BMP280;64449;50.016;19.954;2023-03-12T10:52:35;98348.52;;;19.38
75811;BMP280;64449;50.016;19.954;2023-03-12T10:55:30;98340.55;;;19.63
75811;BMP280;64449;50.016;19.954;2023-03-12T10:57:55;98346.05;;;19.73
75811;BMP280;64449;50.016;19.954;2023-03-12T11:00:26;98344.82;;;19.58
75811;BMP280;64449;50.016;19.954;2023-03-12T11:02:58;98347.30;;;19.58
75811;BMP280;64449;50.016;19.954;2023-03-12T11:05:27;98354.73;;;19.60
75811;BMP280;64449;50.016;19.954;2023-03-12T11:07:54;98356.95;;;19.42
75811;BMP280;64449;50.016;19.954;2023-03-12T11:10:26;98350.81;;;19.21
75811;BMP280;64449;50.016;19.954;2023-03-12T11:13:04;98358.23;;;19.05
75811;BMP280;64449;50.016;19.954;2023-03-12T11:15:42;98353.48;;;19.06
75811;BMP280;64449;50.016;19.954;2023-03-12T11:20:52;98355.67;;;18.89
75811;BMP280;64449;50.016;19.954;2023-03-12T11:23:28;98361.29;;;18.53
75811;BMP280;64449;50.016;19.954;2023-03-12T11:26:10;98358.06;;;18.01
75811;BMP280;64449;50.016;19.954;2023-03-12T11:28:42;98360.33;;;17.73
75811;BMP280;64449;50.016;19.954;2023-03-12T11:31:18;98356.47;;;17.72
75811;BMP280;64449;50.016;19.954;2023-03-12T11:33:45;98359.73;;;17.75
75811;BMP280;64449;50.016;19.954;2023-03-12T11:36:13;98352.69;;;17.77
75811;BMP280;64449;50.016;19.954;2023-03-12T11:52:02;98362.45;;;17.86
75811;BMP280;64449;50.016;19.954;2023-03-12T12:00:01;98361.98;;;17.35
75811;BMP280;64449;50.016;19.954;2023-03-12T12:24:27;98362.15;;;16.07
75811;BMP280;64449;50.016;19.954;2023-03-12T12:27:18;98359.39;;;16.10
75811;BMP280;64449;50.016;19.954;2023-03-12T12:33:08;98372.78;;;15.91
75811;BMP280;64449;50.016;19.954;2023-03-12T12:35:41;98369.02;;;15.60
75811;BMP280;64449;50.016;19.954;2023-03-12T12:38:33;98367.50;;;15.29
75811;BMP280;64449;50.016;19.954;2023-03-12T12:41:10;98357.41;;;15.06
75811;BMP280;64449;50.016;19.954;2023-03-12T12:43:40;98363.72;;;15.02
75811;BMP280;64449;50.016;19.954;2023-03-12T12:46:30;98358.77;;;14.95
75811;BMP280;64449;50.016;19.954;2023-03-12T12:49:00;98366.79;;;14.72
75811;BMP280;64449;50.016;19.954;2023-03-12T12:51:34;98371.27;;;14.50
75811;BMP280;64449;50.016;19.954;2023-03-12T12:57:02;98386.91;;;14.32
75811;BMP280;64449;50.016;19.954;2023-03-12T12:59:41;98385.62;;;14.12
75811;BMP280;64449;50.016;19.954;2023-03-12T13:02:16;98381.66;;;13.94
75811;BMP280;64449;50.016;19.954;2023-03-12T13:04:44;98385.84;;;13.79
75811;BMP280;64449;50.016;19.954;2023-03-12T13:09:43;98384.80;;;13.60
75811;BMP280;64449;50.016;19.954;2023-03-12T13:14:52;98380.55;;;13.36
75811;BMP280;64449;50.016;19.954;2023-03-12T13:19:49;98373.95;;;12.98
75811;BMP280;64449;50.016;19.954;2023-03-12T13:22:30;98369.05;;;12.78
75811;BMP280;64449;50.016;19.954;2023-03-12T13:33:58;98378.94;;;11.58
75811;BMP280;64449;50.016;19.954;2023-03-12T13:36:35;98375.33;;;11.34
75811;BMP280;64449;50.016;19.954;2023-03-12T13:39:30;98373.91;;;11.12
75811;BMP280;64449;50.016;19.954;2023-03-12T13:41:57;98379.11;;;10.92
75811;BMP280;64449;50.016;19.954;2023-03-12T13:52:39;98381.94;;;10.55
75811;BMP280;64449;50.016;19.954;2023-03-12T13:55:26;98384.30;;;10.53
75811;BMP280;64449;50.016;19.954;2023-03-12T14:00:29;98375.51;;;10.45
75811;BMP280;64449;50.016;19.954;2023-03-12T14:02:59;98373.25;;;10.41
75811;BMP280;64449;50.016;19.954;2023-03-12T14:05:27;98370.89;;;10.40
75811;BMP280;64449;50.016;19.954;2023-03-12T14:08:10;98363.06;;;10.36
75811;BMP280;64449;50.016;19.954;2023-03-12T14:13:15;98370.86;;;10.26
75811;BMP280;64449;50.016;19.954;2023-03-12T14:16:00;98369.79;;;10.18
75811;BMP280;64449;50.016;19.954;2023-03-12T14:18:29;98366.45;;;10.10
75811;BMP280;64449;50.016;19.954;2023-03-12T14:20:59;98358.62;;;10.05
75811;BMP280;64449;50.016;19.954;2023-03-12T14:23:36;98363.80;;;9.98
75811;BMP280;64449;50.016;19.954;2023-03-12T14:26:03;98369.21;;;9.86
75811;BMP280;64449;50.016;19.954;2023-03-12T14:28:32;98371.42;;;9.78
75811;BMP280;64449;50.016;19.954;2023-03-12T14:31:15;98376.30;;;9.71
75811;BMP280;64449;50.016;19.954;2023-03-12T14:33:59;98376.54;;;9.64
75811;BMP280;64449;50.016;19.954;2023-03-12T14:36:35;98375.23;;;9.59
75811;BMP280;64449;50.016;19.954;2023-03-12T14:39:42;98374.11;;;9.53
75811;BMP280;64449;50.016;19.954;2023-03-12T14:42:10;98379.20;;;9.44
75811;BMP280;64449;50.016;19.954;2023-03-12T14:44:53;98379.27;;;9.40
75811;BMP280;64449;50.016;19.954;2023-03-12T14:47:21;98384.27;;;9.37
75811;BMP280;64449;50.016;19.954;2023-03-12T14:49:46;98382.80;;;9.32
75811;BMP280;64449;50.016;19.954;2023-03-12T14:52:25;98390.77;;;9.29
75811;BMP280;64449;50.016;19.954;2023-03-12T14:54:56;98385.64;;;9.28
75811;BMP280;64449;50.016;19.954;2023-03-12T14:57:21;98388.63;;;9.29
75811;BMP280;64449;50.016;19.954;2023-03-12T14:59:56;98392.48;;;9.29
75811;BMP280;64449;50.016;19.954;2023-03-12T15:02:23;98393.58;;;9.25
75811;BMP280;64449;50.016;19.954;2023-03-12T15:04:52;98395.22;;;9.23
75811;BMP280;64449;50.016;19.954;2023-03-12T15:07:22;98394.91;;;9.20
75811;BMP280;64449;50.016;19.954;2023-03-12T15:09:52;98395.71;;;9.15
75811;BMP280;64449;50.016;19.954;2023-03-12T15:12:23;98397.46;;;9.11
75811;BMP280;64449;50.016;19.954;2023-03-12T15:14:51;98396.20;;;9.07
75811;BMP280;64449;50.016;19.954;2023-03-12T15:17:20;98395.34;;;9.05
75811;BMP280;64449;50.016;19.954;2023-03-12T15:19:46;98394.67;;;9.02
75811;BMP280;64449;50.016;19.954;2023-03-12T15:22:16;98398.83;;;8.99
75811;BMP280;64449;50.016;19.954;2023-03-12T15:24:42;98402.45;;;8.96
75811;BMP280;64449;50.016;19.954;2023-03-12T15:27:30;98405.79;;;8.93
75811;BMP280;64449;50.016;19.954;2023-03-12T15:29:57;98403.11;;;8.91
75811;BMP280;64449;50.016;19.954;2023-03-12T15:32:25;98406.17;;;8.86
75811;BMP280;64449;50.016;19.954;2023-03-12T15:34:51;98406.22;;;8.81
75811;BMP280;64449;50.016;19.954;2023-03-12T15:37:21;98408.36;;;8.78
75811;BMP280;64449;50.016;19.954;2023-03-12T15:39:50;98406.83;;;8.73
75811;BMP280;64449;50.016;19.954;2023-03-12T15:42:19;98399.23;;;8.69
75811;BMP280;64449;50.016;19.954;2023-03-12T15:44:51;98398.30;;;8.65
75811;BMP280;64449;50.016;19.954;2023-03-12T15:47:38;98395.98;;;8.61
75811;BMP280;64449;50.016;19.954;2023-03-12T15:50:15;98397.59;;;8.58
75811;BMP280;64449;50.016;19.954;2023-03-12T15:53:04;98399.98;;;8.55
75811;BMP280;64449;50.016;19.954;2023-03-12T15:55:32;98405.60;;;8.53
75811;BMP280;64449;50.016;19.954;2023-03-12T15:57:58;98406.79;;;8.52
75811;BMP280;64449;50.016;19.954;2023-03-12T16:00:37;98408.00;;;8.51
75811;BMP280;64449;50.016;19.954;2023-03-12T16:03:14;98401.05;;;8.47